Time;durP1;ratioP1;P1;durP2;ratioP2;P2;SDS_P1;SDS_P2;PMS_P1;PMS_P2;Temp;Humidity;BMP_temperature;BMP_pressure;BME280_temperature;BME280_humidity;BME280_pressure;Samples;Min_cycle;Max_cycle;Signal;HPM_P1;HPM_P2
2023/08/13 00:01:39;;;;;;;17.40;1.80;;;;;;;23.80;60.58;99578.50;7309082;19;129790;-40
2023/08/13 00:04:05;;;;;;;55.40;4.03;;;;;;;23.80;59.95;99569.81;7306220;19;130460;-37
2023/08/13 00:06:30;;;;;;;53.87;4.17;;;;;;;23.81;60.26;99579.31;7307222;19;129698;-40
2023/08/13 00:08:55;;;;;;;64.37;5.33;;;;;;;23.82;59.99;99578.34;7302300;19;129356;-42
2023/08/13 00:11:21;;;;;;;33.97;2.60;;;;;;;23.82;60.31;99579.16;7306544;19;129573;-42
2023/08/13 00:13:47;;;;;;;116.00;8.37;;;;;;;23.82;59.91;99584.41;7306245;19;129372;-42
2023/08/13 00:16:12;;;;;;;35.47;2.85;;;;;;;23.82;60.27;99584.41;7307006;19;129620;-41
2023/08/13 00:18:38;;;;;;;44.30;3.33;;;;;;;23.82;59.86;99594.91;7302341;19;132728;-39
2023/08/13 00:21:03;;;;;;;60.13;4.87;;;;;;;23.82;60.06;99600.16;7304081;19;130430;-42
2023/08/13 00:23:29;;;;;;;37.43;3.20;;;;;;;23.76;60.48;99586.84;7307056;19;129427;-43
2023/08/13 00:25:54;;;;;;;45.10;3.77;;;;;;;23.84;59.81;99592.97;7301334;19;129436;-40
2023/08/13 00:28:19;;;;;;;56.30;4.27;;;;;;;23.83;60.39;99591.31;7303994;19;130290;-43
2023/08/13 00:30:45;;;;;;;27.70;2.50;;;;;;;23.84;60.25;99598.22;7305982;19;129673;-40
2023/08/13 00:33:10;;;;;;;54.33;4.50;;;;;;;23.83;59.90;99601.81;7305689;19;129424;-36
2023/08/13 00:35:36;;;;;;;34.83;2.77;;;;;;;23.83;59.91;99596.56;7303415;19;130286;-42
2023/08/13 00:38:01;;;;;;;63.77;4.87;;;;;;;23.82;59.88;99615.91;7303900;19;129823;-42
2023/08/13 00:40:27;;;;;;;38.47;3.47;;;;;;;23.85;60.40;99612.97;7307525;19;130479;-39
2023/08/13 00:42:53;;;;;;;25.83;2.50;;;;;;;23.84;60.49;99616.59;7306560;19;129335;-38
2023/08/13 00:45:18;;;;;;;61.43;4.57;;;;;;;23.86;60.47;99613.81;7304678;19;130848;-43
2023/08/13 00:47:44;;;;;;;32.53;2.67;;;;;;;23.86;60.06;99617.28;7306887;19;129246;-38
2023/08/13 00:50:10;;;;;;;75.37;5.27;;;;;;;23.86;60.49;99627.78;7305213;19;129835;-38
2023/08/13 00:52:36;;;;;;;42.83;3.55;;;;;;;23.85;59.82;99631.38;7305816;19;129175;-38
2023/08/13 00:55:02;;;;;;;52.40;3.87;;;;;;;23.85;59.75;99625.31;7305109;19;129140;-40
2023/08/13 00:57:28;;;;;;;52.93;4.17;;;;;;;23.85;59.83;99630.56;7306046;19;131701;-41
2023/08/13 00:59:54;;;;;;;28.67;2.47;;;;;;;23.85;60.44;99626.13;7306175;19;129683;-42
2023/08/13 01:02:21;;;;;;;59.27;4.70;;;;;;;23.86;60.34;99627.78;7305821;19;131027;-40
2023/08/13 01:04:46;;;;;;;;;;;;;;;23.95;60.18;99621.59;7305812;19;129185;-41
2023/08/13 01:07:28;;;;;;;41.07;3.30;;;;;;;23.88;60.28;99628.44;7304924;19;129881;-43
2023/08/13 01:10:08;;;;;;;32.85;2.72;;;;;;;23.86;60.30;99627.78;7306857;19;130440;-41
2023/08/13 01:12:46;;;;;;;25.55;2.45;;;;;;;23.86;60.36;99621.69;7304607;19;130052;-38
2023/08/13 01:15:33;;;;;;;31.92;2.83;;;;;;;23.90;60.14;99633.56;7299115;19;129946;-40
2023/08/13 01:18:01;;;;;;;49.17;4.07;;;;;;;23.75;59.85;99625.38;7301490;19;130583;-42
2023/08/13 01:20:36;;;;;;;60.08;4.45;;;;;;;23.87;60.06;99642.53;7307695;19;129641;-39
2023/08/13 01:23:02;;;;;;;25.45;2.13;;;;;;;23.82;60.27;99629.03;7314158;19;129254;-39
2023/08/13 01:25:28;;;;;;;59.20;4.70;;;;;;;23.86;60.49;99638.28;7309936;19;131972;-42
2023/08/13 01:28:17;;;;;;;29.88;2.72;;;;;;;23.88;60.41;99633.69;7310454;19;130360;-43
2023/08/13 01:30:49;;;;;;;54.15;3.83;;;;;;;23.87;60.33;99634.66;7309417;19;129968;-42
2023/08/13 01:33:26;;;;;;;24.30;2.17;;;;;;;23.86;60.05;99634.81;7312471;19;129353;-42
2023/08/13 01:35:53;;;;;;;57.95;4.15;;;;;;;23.87;60.21;99639.09;7308677;19;129435;-45
2023/08/13 01:38:19;;;;;;;;;;;;;;;23.97;60.18;99639.81;7308748;19;131009;-38
2023/08/13 01:40:44;;;;;;;57.70;4.40;;;;;;;23.89;60.36;99648.47;7308242;19;129536;-40
2023/08/13 01:43:09;;;;;;;26.17;2.33;;;;;;;23.88;60.01;99646.81;7313959;19;130657;-41
2023/08/13 01:45:35;;;;;;;55.28;4.07;;;;;;;23.86;60.41;99643.53;7308703;19;132255;-41
2023/08/13 01:48:00;;;;;;;45.23;3.33;;;;;;;23.89;60.42;99640.59;7309637;19;129236;-44
2023/08/13 01:50:26;;;;;;;61.80;4.83;;;;;;;23.88;60.49;99646.81;7307371;19;130312;-41
2023/08/13 01:52:51;;;;;;;43.73;3.70;;;;;;;23.88;59.87;99646.00;7311625;19;129709;-40
2023/08/13 01:55:16;;;;;;;67.73;5.07;;;;;;;23.89;60.14;99645.00;7308291;19;130047;-41
2023/08/13 01:57:42;;;;;;;71.43;5.37;;;;;;;23.78;60.11;99630.34;7301844;19;130594;-41
2023/08/13 02:00:08;;;;;;;40.67;3.63;;;;;;;23.89;60.13;99642.38;7312108;19;129782;-40
2023/08/13 02:02:36;;;;;;;62.57;4.83;;;;;;;23.88;60.60;99641.56;7308532;19;130313;-42
2023/08/13 02:05:01;;;;;;;52.65;4.13;;;;;;;23.88;60.11;99641.56;7309177;19;129473;-42
2023/08/13 02:07:26;;;;;;;57.73;4.17;;;;;;;23.88;60.39;99641.56;7308214;19;130153;-42
2023/08/13 02:09:52;;;;;;;32.53;2.80;;;;;;;23.88;60.42;99641.56;7311171;19;129425;-42
2023/08/13 02:12:17;;;;;;;23.80;2.03;;;;;;;23.80;60.42;99631.00;7307333;19;129259;-45
2023/08/13 02:14:42;;;;;;;67.97;5.30;;;;;;;23.91;59.69;99654.41;7308503;19;129797;-43
2023/08/13 02:17:12;;;;;;;51.37;3.83;;;;;;;23.91;59.81;99657.03;7308304;19;129799;-43
2023/08/13 02:19:39;;;;;;;32.05;2.97;;;;;;;23.90;60.49;99657.19;7311481;19;131709;-44
2023/08/13 02:22:04;;;;;;;24.20;1.98;;;;;;;23.91;59.79;99664.06;7310431;19;129706;-41
2023/08/13 02:24:30;;;;;;;112.97;8.70;;;;;;;23.91;60.10;99659.66;7308953;19;131555;-41
2023/08/13 02:26:55;;;;;;;38.83;3.07;;;;;;;23.91;60.06;99664.06;7309354;19;129801;-43
2023/08/13 02:29:20;;;;;;;36.77;3.23;;;;;;;23.90;59.75;99663.25;7311072;19;129353;-40
2023/08/13 02:31:46;;;;;;;49.90;4.30;;;;;;;23.91;60.15;99662.28;7307610;19;130379;-41
2023/08/13 02:34:11;;;;;;;43.22;3.17;;;;;;;23.89;60.57;99664.22;7309777;19;131249;-43
2023/08/13 02:36:36;;;;;;;49.93;3.63;;;;;;;23.90;59.86;99671.13;7309214;19;129164;-43
2023/08/13 02:39:02;;;;;;;78.27;6.13;;;;;;;23.91;60.40;99662.28;7303936;19;131528;-43
2023/08/13 02:41:27;;;;;;;74.03;5.50;;;;;;;23.88;59.79;99659.94;7308045;19;130853;-41
2023/08/13 02:43:56;;;;;;;65.47;4.88;;;;;;;23.90;60.62;99660.63;7309293;19;130075;-43
2023/08/13 02:46:24;;;;;;;57.30;4.57;;;;;;;23.89;60.48;99658.16;7309034;19;129955;-45
2023/08/13 02:48:51;;;;;;;48.70;3.80;;;;;;;23.90;60.68;99670.31;7307286;19;130228;-41
2023/08/13 02:51:16;;;;;;;28.35;2.40;;;;;;;23.88;60.37;99672.25;7309240;19;129103;-42
2023/08/13 02:53:42;;;;;;;56.50;4.53;;;;;;;23.90;60.46;99671.13;7309272;19;129659;-42
2023/08/13 02:56:08;;;;;;;46.63;3.60;;;;;;;23.90;60.08;99676.38;7309237;19;129928;-37
2023/08/13 02:58:33;;;;;;;58.33;4.40;;;;;;;23.89;60.39;99674.72;7306778;19;129385;-43
2023/08/13 03:00:59;;;;;;;38.70;3.20;;;;;;;23.92;60.47;99689.34;7309923;19;130083;-38
2023/08/13 03:03:25;;;;;;;46.57;3.40;;;;;;;23.90;60.18;99686.88;7310711;19;129940;-41
2023/08/13 03:05:50;;;;;;;53.93;4.47;;;;;;;23.91;60.71;99688.53;7309266;19;130628;-42
2023/08/13 03:08:16;;;;;;;52.97;4.53;;;;;;;23.90;60.24;99684.25;7307583;19;130194;-43
2023/08/13 03:10:41;;;;;;;62.97;4.83;;;;;;;23.80;59.90;99670.38;7308839;19;129654;-42
2023/08/13 03:13:06;;;;;;;40.83;2.93;;;;;;;23.90;60.43;99686.88;7308770;19;130558;-43
2023/08/13 03:15:32;;;;;;;33.90;2.83;;;;;;;23.91;59.75;99690.34;7308732;19;130266;-40
2023/08/13 03:17:57;;;;;;;39.65;3.42;;;;;;;23.90;60.40;99679.00;7306656;19;131488;-42
2023/08/13 03:20:22;;;;;;;52.00;4.07;;;;;;;23.91;59.92;99683.28;7309874;19;130862;-42
2023/08/13 03:22:48;;;;;;;73.30;5.23;;;;;;;23.91;60.47;99677.19;7306828;19;132241;-40
2023/08/13 03:25:13;;;;;;;29.30;2.53;;;;;;;23.90;60.18;99681.63;7307521;19;129939;-40
2023/08/13 03:27:38;;;;;;;32.80;2.67;;;;;;;23.89;60.24;99679.97;7307200;19;130870;-40
2023/08/13 03:30:05;;;;;;;85.20;5.97;;;;;;;23.90;59.74;99667.69;7303032;19;130305;-37
2023/08/13 03:32:30;;;;;;;46.33;3.80;;;;;;;23.89;60.33;99656.34;7309849;19;129986;-42
2023/08/13 03:34:55;;;;;;;60.38;4.78;;;;;;;23.89;59.78;99674.72;7304837;19;129442;-39
2023/08/13 03:37:21;;;;;;;23.40;2.67;;;;;;;23.89;59.98;99674.72;7306311;19;132624;-40
2023/08/13 03:39:46;;;;;;;43.63;3.37;;;;;;;23.88;60.16;99677.50;7308510;19;128885;-41
2023/08/13 03:42:11;;;;;;;67.32;4.65;;;;;;;23.79;60.52;99658.25;7304975;19;130600;-39
2023/08/13 03:44:37;;;;;;;73.63;5.83;;;;;;;23.90;59.84;99676.38;7307911;19;130148;-42
2023/08/13 03:47:02;;;;;;;60.50;4.80;;;;;;;23.91;60.14;99683.28;7306862;19;130269;-42
2023/08/13 03:49:27;;;;;;;53.37;3.90;;;;;;;23.93;60.47;99685.75;7308881;19;130531;-39
2023/08/13 03:51:53;;;;;;;54.30;4.40;;;;;;;23.92;59.96;99684.09;7304740;19;132046;-37
2023/08/13 03:54:18;;;;;;;20.90;2.07;;;;;;;23.91;60.43;99683.28;7307663;19;129620;-40
2023/08/13 03:56:43;;;;;;;27.80;2.33;;;;;;;23.92;59.80;99684.09;7307639;19;132312;-40
2023/08/13 03:59:09;;;;;;;80.97;5.93;;;;;;;23.91;60.20;99688.53;7306674;19;129862;-42
2023/08/13 04:01:34;;;;;;;17.33;1.65;;;;;;;23.90;59.71;99686.88;7309206;19;129549;-43
2023/08/13 04:03:59;;;;;;;46.33;4.00;;;;;;;23.91;60.34;99691.16;7307382;19;129673;-40
2023/08/13 04:06:25;;;;;;;46.08;3.53;;;;;;;23.84;60.46;99679.63;7303943;19;130073;-43
2023/08/13 04:08:50;;;;;;;36.53;2.70;;;;;;;23.92;60.40;99682.31;7306735;19;129012;-43
2023/08/13 04:11:16;;;;;;;52.13;4.13;;;;;;;23.88;60.13;99683.56;7305421;19;129757;-40
2023/08/13 04:13:41;;;;;;;21.60;1.80;;;;;;;23.92;59.78;99692.81;7309676;19;129285;-40
2023/08/13 04:16:06;;;;;;;63.93;4.83;;;;;;;23.91;59.99;99703.47;7308067;19;129600;-41
2023/08/13 04:18:32;;;;;;;37.87;3.00;;;;;;;23.90;60.43;99705.25;7308358;19;129124;-41
2023/08/13 04:20:57;;;;;;;26.03;2.07;;;;;;;23.91;59.74;99706.94;7304446;19;129063;-40
2023/08/13 04:23:22;;;;;;;50.67;3.90;;;;;;;23.81;60.09;99676.47;7306842;19;129440;-42
2023/08/13 04:25:48;;;;;;;48.70;3.47;;;;;;;23.91;59.84;99704.28;7306470;19;129569;-38
2023/08/13 04:28:14;;;;;;;19.90;2.03;;;;;;;23.91;60.13;99709.56;7304591;19;130270;-40
2023/08/13 04:30:39;;;;;;;43.17;3.53;;;;;;;23.89;60.50;99708.88;7305730;19;128999;-43
2023/08/13 04:33:04;;;;;;;37.85;2.92;;;;;;;23.91;60.21;99712.19;7306724;19;130403;-39
2023/08/13 04:35:30;;;;;;;67.37;4.73;;;;;;;23.93;60.16;99718.06;7301258;19;129383;-42
2023/08/13 04:37:56;;;;;;;50.47;3.47;;;;;;;23.91;59.69;99712.19;7304770;19;129587;-39
2023/08/13 04:40:21;;;;;;;46.45;3.70;;;;;;;23.91;59.80;99706.94;7305597;19;129053;-38
2023/08/13 04:42:47;;;;;;;28.43;2.23;;;;;;;23.88;60.27;99704.56;7305641;19;129487;-39
2023/08/13 04:45:12;;;;;;;38.90;2.90;;;;;;;23.91;60.09;99703.47;7305319;19;130027;-39
2023/08/13 04:47:38;;;;;;;57.33;4.47;;;;;;;23.92;59.81;99702.47;7302157;19;130032;-41
2023/08/13 04:50:06;;;;;;;25.30;2.07;;;;;;;23.90;60.38;99697.38;7306966;19;129587;-41
2023/08/13 04:52:31;;;;;;;66.93;5.15;;;;;;;23.90;60.18;99697.38;7304411;19;130329;-38
2023/08/13 04:54:56;;;;;;;44.67;3.30;;;;;;;23.91;60.56;99704.28;7310199;19;130425;-43
2023/08/13 04:57:22;;;;;;;42.43;3.53;;;;;;;23.92;59.49;99695.44;7312510;19;130052;-37
2023/08/13 04:59:47;;;;;;;33.70;3.13;;;;;;;23.91;60.18;99699.03;7312075;19;129980;-40
2023/08/13 05:02:12;;;;;;;32.83;2.43;;;;;;;23.92;59.88;99697.22;7310028;19;129941;-41
2023/08/13 05:04:38;;;;;;;98.47;7.10;;;;;;;23.90;59.90;99699.19;7309418;19;129668;-41
2023/08/13 05:07:03;;;;;;;29.00;2.23;;;;;;;23.91;59.84;99706.94;7311857;19;130220;-39
2023/08/13 05:09:29;;;;;;;37.47;3.07;;;;;;;23.88;60.49;99709.81;7313307;19;129143;-39
2023/08/13 05:11:55;;;;;;;62.13;4.43;;;;;;;23.91;60.16;99708.72;7309719;19;130335;-42
2023/08/13 05:14:22;;;;;;;49.20;3.73;;;;;;;23.91;60.57;99699.03;7311837;19;129403;-43
2023/08/13 05:16:47;;;;;;;56.17;4.55;;;;;;;23.91;60.49;99709.56;7310418;19;129539;-40
2023/08/13 05:19:12;;;;;;;29.77;2.40;;;;;;;23.91;60.05;99717.44;7311691;19;129617;-38
2023/08/13 05:21:37;;;;;;;61.33;4.55;;;;;;;23.83;60.63;99701.56;7311795;19;131071;-41
2023/08/13 05:24:03;;;;;;;33.38;2.75;;;;;;;23.91;60.43;99706.94;7311929;19;130117;-40
2023/08/13 05:26:29;;;;;;;31.08;2.42;;;;;;;23.91;60.51;99714.81;7311468;19;129292;-40
2023/08/13 05:28:54;;;;;;;44.93;3.73;;;;;;;23.92;60.15;99720.84;7306661;19;130307;-43
2023/08/13 05:31:20;;;;;;;42.90;3.10;;;;;;;23.93;59.92;99722.53;7311483;19;129840;-40
2023/08/13 05:33:45;;;;;;;65.00;5.07;;;;;;;23.89;60.50;99721.16;7309827;19;129419;-42
2023/08/13 05:36:11;;;;;;;29.37;2.47;;;;;;;23.92;60.38;99726.94;7310924;19;129363;-42
2023/08/13 05:38:36;;;;;;;57.45;4.07;;;;;;;23.93;59.89;99720.69;7307013;19;129671;-38
2023/08/13 05:41:01;;;;;;;83.27;6.10;;;;;;;23.93;60.22;99723.31;7311149;19;129499;-41
2023/08/13 05:43:27;;;;;;;31.95;2.47;;;;;;;23.93;59.78;99712.03;7312283;19;129429;-42
2023/08/13 05:45:52;;;;;;;54.40;4.37;;;;;;;23.84;60.01;99698.00;7309654;19;129003;-42
2023/08/13 05:48:18;;;;;;;13.03;1.43;;;;;;;23.93;60.21;99707.56;7309231;19;130199;-41
2023/08/13 05:50:43;;;;;;;44.47;3.22;;;;;;;23.84;60.16;99698.00;7310811;19;129712;-41
2023/08/13 05:53:08;;;;;;;72.27;5.27;;;;;;;23.91;60.67;99704.28;7310937;19;129547;-42
2023/08/13 05:55:34;;;;;;;21.38;2.03;;;;;;;23.93;59.89;99697.06;7311485;19;129165;-45
2023/08/13 05:57:59;;;;;;;60.70;4.20;;;;;;;23.93;60.52;99702.31;7308720;19;129650;-42
2023/08/13 06:00:25;;;;;;;44.10;3.43;;;;;;;23.92;59.81;99705.94;7311775;19;130354;-41
2023/08/13 06:02:50;;;;;;;20.20;1.87;;;;;;;23.92;60.25;99710.34;7306602;19;130998;-42
2023/08/13 06:05:16;;;;;;;63.00;4.70;;;;;;;23.95;60.74;99715.28;7306410;19;129535;-42
2023/08/13 06:07:41;;;;;;;42.30;3.13;;;;;;;23.95;60.58;99717.91;7310969;19;129355;-38
2023/08/13 06:10:07;;;;;;;47.83;3.63;;;;;;;23.94;60.18;99708.41;7312648;19;129230;-39
2023/08/13 06:12:33;;;;;;;46.20;3.77;;;;;;;23.94;60.19;99714.50;7308790;19;129809;-36
2023/08/13 06:14:59;;;;;;;30.05;2.50;;;;;;;23.93;60.35;99710.19;7310768;19;130891;-39
2023/08/13 06:17:25;;;;;;;61.60;4.33;;;;;;;23.86;60.70;99698.69;7307642;19;129387;-42
2023/08/13 06:19:51;;;;;;;38.67;3.17;;;;;;;23.95;60.01;99715.28;7312369;19;130144;-43
2023/08/13 06:22:16;;;;;;;47.70;3.63;;;;;;;23.86;60.20;99700.47;7312667;19;130348;-39
2023/08/13 06:24:41;;;;;;;46.23;3.47;;;;;;;23.90;60.32;99710.50;7309045;19;129026;-39
2023/08/13 06:27:07;;;;;;;44.03;3.37;;;;;;;23.95;60.42;99724.00;7308995;19;130438;-37
2023/08/13 06:29:32;;;;;;;29.80;2.33;;;;;;;23.95;60.21;99718.75;7312197;19;131231;-42
2023/08/13 06:31:58;;;;;;;34.40;2.63;;;;;;;23.95;60.51;99721.38;7309319;19;130287;-37
2023/08/13 06:34:23;;;;;;;131.10;9.30;;;;;;;23.94;59.88;99719.75;7307148;19;129218;-41
2023/08/13 06:36:48;;;;;;;51.87;3.93;;;;;;;23.91;59.90;99714.81;7305004;19;129153;-43
2023/08/13 06:39:14;;;;;;;32.40;2.43;;;;;;;23.93;60.37;99712.81;7312460;19;129700;-41
2023/08/13 06:41:39;;;;;;;38.70;2.87;;;;;;;23.95;60.41;99710.88;7309938;19;129886;-40
2023/08/13 06:44:05;;;;;;;70.50;5.23;;;;;;;23.95;60.16;99720.53;7309550;19;130548;-41
2023/08/13 06:46:30;;;;;;;56.27;4.27;;;;;;;23.95;59.81;99716.13;7308250;19;129432;-38
2023/08/13 06:48:56;;;;;;;31.95;2.70;;;;;;;23.96;60.50;99722.22;7307155;19;129968;-41
2023/08/13 06:51:21;;;;;;;28.47;2.33;;;;;;;23.96;60.45;99717.78;7306389;19;130964;-37
2023/08/13 06:53:46;;;;;;;27.13;2.30;;;;;;;23.95;60.46;99710.03;7309834;19;129143;-43
2023/08/13 06:56:12;;;;;;;52.17;4.13;;;;;;;23.97;60.05;99714.19;7307594;19;128857;-36
2023/08/13 06:58:37;;;;;;;41.77;3.23;;;;;;;23.97;59.91;99719.44;7307695;19;129209;-40
2023/08/13 07:01:03;;;;;;;29.60;2.33;;;;;;;23.88;59.82;99704.56;7309488;19;129644;-43
2023/08/13 07:03:28;;;;;;;71.20;5.23;;;;;;;23.98;59.99;99731.59;7308087;19;130139;-41
2023/08/13 07:05:53;;;;;;;86.30;6.60;;;;;;;23.99;59.91;99724.56;7306765;19;130140;-43
2023/08/13 07:08:19;;;;;;;40.97;3.30;;;;;;;23.98;59.73;99728.97;7305577;19;129851;-42
2023/08/13 07:10:44;;;;;;;42.00;3.13;;;;;;;23.99;60.10;99733.28;7306383;19;129268;-42
2023/08/13 07:13:09;;;;;;;40.43;2.90;;;;;;;23.99;59.76;99730.66;7309088;19;130640;-41
2023/08/13 07:15:35;;;;;;;67.87;5.47;;;;;;;23.99;59.99;99738.53;7307866;19;129566;-42
2023/08/13 07:18:01;;;;;;;18.37;1.80;;;;;;;24.00;60.06;99732.28;7304344;19;130002;-37
2023/08/13 07:20:26;;;;;;;48.63;3.38;;;;;;;24.00;59.81;99734.09;7307382;19;130154;-45
2023/08/13 07:22:52;;;;;;;44.63;3.27;;;;;;;24.00;60.42;99734.09;7307599;19;128978;-38
2023/08/13 07:25:17;;;;;;;28.15;2.13;;;;;;;24.00;59.70;99729.66;7307988;19;129905;-42
2023/08/13 07:27:44;;;;;;;;;;;;;;;24.03;60.54;99707.53;7304205;19;132878;-42
2023/08/13 07:30:11;;;;;;;23.23;1.93;;;;;;;24.01;60.05;99722.63;7309645;19;129791;-39
2023/08/13 07:32:37;;;;;;;44.60;3.42;;;;;;;23.98;60.09;99726.34;7305649;19;129208;-38
2023/08/13 07:35:04;;;;;;;41.28;3.20;;;;;;;23.99;59.94;99722.78;7306556;19;129542;-39
2023/08/13 07:37:29;;;;;;;38.47;3.08;;;;;;;23.89;59.97;99700.16;7304927;19;130562;-43
2023/08/13 07:39:56;;;;;;;99.93;7.27;;;;;;;23.91;59.88;99711.34;7305731;19;130969;-37
2023/08/13 07:42:21;;;;;;;52.30;4.00;;;;;;;23.96;60.67;99715.19;7307918;19;130060;-38
2023/08/13 07:44:47;;;;;;;45.67;3.70;;;;;;;23.87;60.41;99710.81;7306518;19;131232;-43
2023/08/13 07:47:13;;;;;;;37.87;2.83;;;;;;;23.94;60.55;99727.63;7307085;19;130018;-40
2023/08/13 07:49:39;;;;;;;47.30;3.28;;;;;;;23.96;60.49;99727.47;7305798;19;129996;-41
2023/08/13 07:52:04;;;;;;;44.60;3.55;;;;;;;23.95;60.08;99726.63;7304635;19;129226;-38
2023/08/13 07:54:29;;;;;;;90.47;6.73;;;;;;;23.96;59.79;99728.31;7304084;19;130384;-40
2023/08/13 07:56:56;;;;;;;46.70;3.87;;;;;;;23.96;60.45;99727.47;7306801;19;129482;-43
2023/08/13 07:59:21;;;;;;;63.03;4.30;;;;;;;23.95;60.22;99726.63;7305897;19;129164;-40
2023/08/13 08:01:46;;;;;;;30.93;2.33;;;;;;;23.96;60.23;99723.06;7308491;19;128861;-36
2023/08/13 08:04:12;;;;;;;50.83;4.10;;;;;;;23.96;60.58;99725.69;7302054;19;129135;-38
2023/08/13 08:06:37;;;;;;;41.00;3.03;;;;;;;23.96;60.43;99719.59;7306581;19;129829;-39
2023/08/13 08:09:05;;;;;;;77.27;5.37;;;;;;;23.96;60.59;99727.47;7306009;19;129377;-41
2023/08/13 08:11:30;;;;;;;38.25;3.22;;;;;;;23.94;60.18;99730.25;7306463;19;128983;-41
2023/08/13 08:13:56;;;;;;;91.93;6.87;;;;;;;23.96;59.75;99736.19;7302337;19;130184;-38
2023/08/13 08:16:21;;;;;;;75.22;5.47;;;;;;;23.96;60.19;99728.31;7303501;19;130203;-39
2023/08/13 08:18:46;;;;;;;93.67;6.03;;;;;;;23.97;60.17;99734.34;7304843;19;130110;-42
2023/08/13 08:21:12;;;;;;;28.70;2.35;;;;;;;23.96;60.21;99730.94;7306730;19;129168;-39
2023/08/13 08:23:37;;;;;;;36.27;2.97;;;;;;;23.94;60.18;99734.66;7306103;19;129219;-43
2023/08/13 08:26:03;;;;;;;48.83;3.83;;;;;;;23.95;60.53;99731.88;7303698;19;129885;-40
2023/08/13 08:28:28;;;;;;;73.57;5.47;;;;;;;23.97;60.21;99735.19;7303231;19;130919;-43
2023/08/13 08:30:53;;;;;;;29.20;2.40;;;;;;;23.98;60.46;99730.81;7305669;19;129975;-40
2023/08/13 08:33:21;;;;;;;43.80;3.28;;;;;;;23.98;60.50;99721.09;7306307;19;130183;-39
2023/08/13 08:35:47;;;;;;;80.50;5.50;;;;;;;23.94;60.38;99711.03;7303914;19;129950;-41
2023/08/13 08:38:13;;;;;;;27.93;2.30;;;;;;;23.96;60.21;99720.44;7302876;19;131437;-41
2023/08/13 08:40:42;;;;;;;48.58;3.58;;;;;;;23.89;59.98;99708.88;7305465;19;129830;-43
2023/08/13 08:43:09;;;;;;;29.27;2.60;;;;;;;23.97;60.34;99718.59;7307081;19;129454;-39
2023/08/13 08:45:37;;;;;;;62.72;4.75;;;;;;;23.86;60.54;99696.03;7301734;19;130511;-38
2023/08/13 08:48:04;;;;;;;37.45;2.83;;;;;;;23.96;60.10;99711.72;7304578;19;130918;-39
2023/08/13 08:50:30;;;;;;;31.65;2.45;;;;;;;23.94;60.20;99706.63;7307319;19;130497;-42
2023/08/13 08:52:56;;;;;;;28.80;2.33;;;;;;;23.97;60.26;99715.97;7304126;19;129915;-43
2023/08/13 08:55:22;;;;;;;46.37;3.43;;;;;;;23.95;59.84;99715.28;7304405;19;129239;-42
2023/08/13 08:57:48;;;;;;;61.60;4.33;;;;;;;23.94;60.17;99698.75;7303903;19;129226;-43
2023/08/13 09:00:14;;;;;;;57.28;4.28;;;;;;;23.97;59.82;99706.31;7305768;19;130207;-39
2023/08/13 09:02:41;;;;;;;20.35;1.83;;;;;;;23.98;59.84;99712.44;7306749;19;129383;-40
2023/08/13 09:05:07;;;;;;;30.52;2.40;;;;;;;23.97;60.42;99708.94;7304962;19;129337;-40
2023/08/13 09:07:32;;;;;;;37.57;2.77;;;;;;;23.97;59.86;99703.69;7305146;19;129129;-43
2023/08/13 09:09:58;;;;;;;54.03;4.23;;;;;;;23.97;60.09;99703.69;7305971;19;130513;-39
2023/08/13 09:12:24;;;;;;;49.43;3.60;;;;;;;23.96;60.50;99707.28;7302375;19;131476;-44
2023/08/13 09:14:55;;;;;;;62.67;4.53;;;;;;;23.98;60.66;99700.09;7303225;19;129899;-37
2023/08/13 09:17:24;;;;;;;51.72;3.90;;;;;;;23.96;60.38;99695.97;7304246;19;129366;-41
2023/08/13 09:19:50;;;;;;;35.08;2.55;;;;;;;23.97;60.18;99698.44;7306322;19;129092;-38
2023/08/13 09:22:15;;;;;;;16.00;1.60;;;;;;;23.96;60.19;99696.78;7304750;19;130399;-42
2023/08/13 09:24:44;;;;;;;55.17;4.07;;;;;;;23.97;60.28;99700.22;7304655;19;129508;-42
2023/08/13 09:27:09;;;;;;;62.25;4.50;;;;;;;23.95;59.90;99700.38;7303046;19;129979;-42
2023/08/13 09:29:36;;;;;;;33.80;2.60;;;;;;;23.93;60.46;99691.00;7305927;19;129408;-37
2023/08/13 09:32:03;;;;;;;47.78;3.75;;;;;;;23.85;60.58;99678.63;7302801;19;129346;-38
2023/08/13 09:34:30;;;;;;;105.13;7.93;;;;;;;23.96;60.69;99695.97;7300189;19;130699;-37
2023/08/13 09:36:57;;;;;;;39.30;2.95;;;;;;;23.96;60.57;99702.03;7304497;19;129188;-38
2023/08/13 09:39:22;;;;;;;;;;;;;;;24.07;60.17;99699.19;7305985;19;129138;-40
2023/08/13 09:41:49;;;;;;;17.73;1.52;;;;;;;23.98;59.88;99694.84;7309747;19;129404;-43
2023/08/13 09:44:20;;;;;;;96.78;7.03;;;;;;;23.95;60.70;99689.88;7304675;19;129204;-37
2023/08/13 09:46:53;;;;;;;40.75;2.80;;;;;;;23.97;60.21;99693.16;7309655;19;132070;-38
2023/08/13 09:49:20;;;;;;;31.27;2.35;;;;;;;23.95;60.50;99689.88;7310948;19;129491;-42
2023/08/13 09:51:49;;;;;;;50.00;3.40;;;;;;;23.95;60.14;99692.50;7311140;19;130471;-40
2023/08/13 09:54:24;;;;;;;66.45;4.65;;;;;;;23.97;60.31;99690.53;7310381;19;129854;-38
2023/08/13 09:56:56;;;;;;;58.45;3.97;;;;;;;23.96;60.44;99688.91;7312151;19;131141;-41
2023/08/13 09:59:22;;;;;;;72.20;5.03;;;;;;;23.96;60.25;99690.69;7312434;19;129729;-43
2023/08/13 10:01:48;;;;;;;33.97;2.43;;;;;;;23.97;60.36;99692.34;7311884;19;130114;-41
2023/08/13 10:04:15;;;;;;;47.40;3.60;;;;;;;23.88;60.58;99678.31;7309966;19;129130;-38
2023/08/13 10:06:42;;;;;;;25.60;2.33;;;;;;;23.96;59.98;99696.78;7308617;19;131184;-39
2023/08/13 10:09:07;;;;;;;49.60;3.38;;;;;;;23.95;60.29;99689.88;7311847;19;129737;-42
2023/08/13 10:11:33;;;;;;;50.77;4.07;;;;;;;23.95;60.27;99689.03;7308932;19;129427;-39
2023/08/13 10:13:58;;;;;;;52.13;3.97;;;;;;;23.98;59.65;99694.84;7305711;19;130538;-42
2023/08/13 10:16:25;;;;;;;56.53;4.07;;;;;;;23.91;59.98;99680.66;7308424;19;130314;-38
2023/08/13 10:18:50;;;;;;;;;;;;;;;24.07;60.26;99690.47;7308549;19;129638;-42
2023/08/13 10:21:15;;;;;;;19.67;1.60;;;;;;;23.99;60.48;99693.88;7312173;19;129664;-42
2023/08/13 10:23:41;;;;;;;54.70;4.33;;;;;;;24.00;60.62;99692.91;7308834;19;131603;-42
2023/08/13 10:26:07;;;;;;;26.80;2.17;;;;;;;23.90;59.92;99675.56;7308001;19;129717;-43
2023/08/13 10:28:33;;;;;;;;;;;;;;;24.08;60.37;99684.28;7308052;19;133006;-43
2023/08/13 10:31:23;;;;;;;26.73;2.25;;;;;;;24.02;60.32;99680.44;7311537;19;130486;-39
2023/08/13 10:34:05;;;;;;;69.95;5.32;;;;;;;24.00;60.58;99687.63;7304118;19;129647;-43
2023/08/13 10:36:53;;;;;;;43.90;3.50;;;;;;;24.01;60.61;99681.44;7307312;19;130119;-39
2023/08/13 10:39:32;;;;;;;28.38;2.22;;;;;;;23.97;60.98;99674.78;7311111;19;131529;-40
2023/08/13 10:41:58;;;;;;;42.95;3.55;;;;;;;23.96;60.33;99669.69;7310246;19;130501;-37
2023/08/13 10:44:31;;;;;;;65.47;4.93;;;;;;;23.97;60.48;99669.53;7309457;19;129034;-43
2023/08/13 10:46:57;;;;;;;47.38;3.28;;;;;;;23.94;60.02;99667.22;7311554;19;129895;-39
2023/08/13 10:49:24;;;;;;;29.27;2.30;;;;;;;23.95;60.14;99673.28;7312433;19;129037;-41
2023/08/13 10:51:50;;;;;;;48.25;3.72;;;;;;;23.85;60.39;99657.63;7308837;19;131934;-43
2023/08/13 10:54:17;;;;;;;29.73;2.27;;;;;;;23.97;60.25;99687.09;7310234;19;129796;-39
2023/08/13 10:56:42;;;;;;;;;;;;;;;24.09;60.40;99678.03;7308260;19;129336;-44
2023/08/13 10:59:08;;;;;;;62.38;4.57;;;;;;;23.89;60.48;99669.47;7309684;19;130088;-43
2023/08/13 11:01:33;;;;;;;27.43;2.23;;;;;;;23.98;60.36;99670.41;7311038;19;129087;-40
2023/08/13 11:04:03;;;;;;;70.33;5.40;;;;;;;23.97;60.57;99666.91;7309367;19;130959;-43
2023/08/13 11:06:28;;;;;;;47.05;3.35;;;;;;;23.86;60.39;99654.03;7308174;19;130570;-40
2023/08/13 11:08:54;;;;;;;56.53;4.27;;;;;;;23.95;60.04;99655.72;7309031;19;130233;-39
2023/08/13 11:11:20;;;;;;;42.63;2.87;;;;;;;23.98;59.99;99652.03;7309497;19;130183;-38
2023/08/13 11:13:47;;;;;;;40.93;3.13;;;;;;;23.97;60.49;99661.66;7309224;19;130611;-39
2023/08/13 11:16:12;;;;;;;60.60;4.18;;;;;;;23.96;60.09;99660.03;7308457;19;131243;-43